createdAt,value
2019-05-07T00:00:34.599Z,5.70
2019-05-07T00:03:05.064Z,5.70
2019-05-07T00:05:33.853Z,5.70
2019-05-07T00:08:03.151Z,5.60
2019-05-07T00:10:33.158Z,5.60
2019-05-07T00:13:02.529Z,5.60
2019-05-07T00:15:32.762Z,5.60
2019-05-07T00:18:03.239Z,5.60
2019-05-07T00:20:32.816Z,5.60
2019-05-07T00:23:02.938Z,5.50
2019-05-07T00:25:32.899Z,5.50
2019-05-07T00:28:02.725Z,5.50
2019-05-07T00:30:33.169Z,5.50
2019-05-07T00:33:02.879Z,5.50
2019-05-07T00:35:33.433Z,5.50
2019-05-07T00:38:06.783Z,5.40
2019-05-07T00:40:43.434Z,5.40
2019-05-07T00:43:13.827Z,5.30
2019-05-07T00:45:47.259Z,5.30
2019-05-07T00:48:15.989Z,5.30
2019-05-07T00:50:46.361Z,5.20
2019-05-07T00:53:15.358Z,5.10
2019-05-07T00:55:44.130Z,5.10
2019-05-07T00:58:13.328Z,5.20
2019-05-07T01:00:42.438Z,5.20
2019-05-07T01:03:12.957Z,5.20
2019-05-07T01:05:43.253Z,5.10
2019-05-07T01:08:13.235Z,5.10
2019-05-07T01:10:42.301Z,5.10
2019-05-07T01:13:12.563Z,5.10
2019-05-07T01:15:42.941Z,5.10
2019-05-07T01:18:32.429Z,5.10
2019-05-07T01:21:02.400Z,5.10
2019-05-07T01:23:32.211Z,5.00
2019-05-07T01:26:03.046Z,5.00
2019-05-07T01:28:33.561Z,5.00
2019-05-07T01:31:02.373Z,5.00
2019-05-07T01:33:33.288Z,5.10
2019-05-07T01:36:06.864Z,5.10
2019-05-07T01:38:35.661Z,5.00
2019-05-07T01:41:04.486Z,5.10
2019-05-07T01:43:33.645Z,5.00
2019-05-07T01:46:03.183Z,5.10
2019-05-07T01:48:32.451Z,5.10
2019-05-07T01:51:04.320Z,5.00
2019-05-07T01:53:33.235Z,5.00
2019-05-07T01:56:03.221Z,5.00
2019-05-07T01:58:33.222Z,5.00
2019-05-07T02:01:02.910Z,5.00
2019-05-07T02:03:41.914Z,5.00
2019-05-07T02:06:22.022Z,5.00
2019-05-07T02:08:53.112Z,5.00
2019-05-07T02:11:46.100Z,5.10
2019-05-07T02:14:14.893Z,5.00
2019-05-07T02:16:43.643Z,5.00
2019-05-07T02:19:12.766Z,5.00
2019-05-07T02:21:42.391Z,5.10
2019-05-07T02:24:12.626Z,5.00
2019-05-07T02:26:42.752Z,5.00
2019-05-07T02:29:12.219Z,5.00
2019-05-07T02:31:44.264Z,5.00
2019-05-07T02:34:14.112Z,5.00
2019-05-07T02:36:43.614Z,5.10
2019-05-07T02:39:20.112Z,5.00
2019-05-07T02:41:48.982Z,5.00
2019-05-07T02:44:17.798Z,4.90
2019-05-07T02:46:53.911Z,4.90
2019-05-07T02:49:24.284Z,4.90
2019-05-07T02:51:54.650Z,4.80
2019-05-07T02:54:27.815Z,4.70
2019-05-07T02:56:56.559Z,4.70
2019-05-07T02:59:25.292Z,4.80
2019-05-07T03:01:54.154Z,4.70
2019-05-07T03:04:25.006Z,4.60
2019-05-07T03:06:54.284Z,4.70
2019-05-07T03:09:23.621Z,4.70
2019-05-07T03:11:52.890Z,4.60
2019-05-07T03:14:23.432Z,4.60
2019-05-07T03:17:13.276Z,4.60
2019-05-07T03:19:46.801Z,4.70
2019-05-07T03:22:15.623Z,4.70
2019-05-07T03:24:48.778Z,4.70
2019-05-07T03:27:17.645Z,4.70
2019-05-07T03:29:47.998Z,4.70
2019-05-07T03:32:36.754Z,4.70
2019-05-07T03:35:06.673Z,4.70
2019-05-07T03:37:36.461Z,4.60
2019-05-07T03:40:05.995Z,4.60
2019-05-07T03:42:34.867Z,4.60
2019-05-07T03:45:06.071Z,4.60
2019-05-07T03:47:36.491Z,4.60
2019-05-07T03:50:08.607Z,4.70
2019-05-07T03:52:37.684Z,4.70
2019-05-07T03:55:08.833Z,4.70
2019-05-07T03:57:37.617Z,4.80
2019-05-07T04:00:08.633Z,4.80
2019-05-07T04:02:38.036Z,4.80
2019-05-07T04:05:07.552Z,4.70
2019-05-07T04:07:36.379Z,4.70
2019-05-07T04:10:10.299Z,4.70
2019-05-07T04:12:39.068Z,4.70
2019-05-07T04:15:08.184Z,4.70
2019-05-07T04:17:37.036Z,4.70
2019-05-07T04:20:08.236Z,4.70
2019-05-07T04:22:37.342Z,4.60
2019-05-07T04:25:09.621Z,4.60
2019-05-07T04:27:56.040Z,4.60
2019-05-07T04:30:25.350Z,4.60
2019-05-07T04:32:55.716Z,4.60
2019-05-07T04:35:29.064Z,4.60
2019-05-07T04:38:01.823Z,4.60
2019-05-07T04:40:28.325Z,4.60
2019-05-07T04:42:57.322Z,4.60
2019-05-07T04:45:26.197Z,4.60
2019-05-07T04:47:54.978Z,4.60
2019-05-07T04:50:43.057Z,4.60
2019-05-07T04:53:05.734Z,4.60
2019-05-07T04:55:34.947Z,4.50
2019-05-07T04:58:08.703Z,4.50
2019-05-07T05:00:34.176Z,4.50
2019-05-07T05:03:04.605Z,4.60
2019-05-07T05:05:33.368Z,4.60
2019-05-07T05:08:05.271Z,4.60
2019-05-07T05:10:34.060Z,4.60
2019-05-07T05:13:03.375Z,4.60
2019-05-07T05:15:32.276Z,4.70
2019-05-07T05:18:02.629Z,4.70
2019-05-07T05:20:42.376Z,4.80
2019-05-07T05:23:18.469Z,4.80
2019-05-07T05:25:47.240Z,4.80
2019-05-07T05:28:16.403Z,4.90
2019-05-07T05:30:52.874Z,4.90
2019-05-07T05:33:23.684Z,4.90
2019-05-07T05:35:52.709Z,4.90
2019-05-07T05:38:24.371Z,4.90
2019-05-07T05:40:53.216Z,5.00
2019-05-07T05:43:31.791Z,5.00
2019-05-07T05:46:02.711Z,5.10
2019-05-07T05:48:33.406Z,5.10
2019-05-07T05:51:06.293Z,5.20
2019-05-07T05:53:43.377Z,5.30
2019-05-07T05:56:18.918Z,5.30
2019-05-07T05:58:52.820Z,5.40
2019-05-07T06:01:32.163Z,5.50
2019-05-07T06:04:05.713Z,5.50
2019-05-07T06:06:42.423Z,5.60
2019-05-07T06:09:29.441Z,5.70
2019-05-07T06:12:16.006Z,5.80
2019-05-07T06:14:58.484Z,5.90
2019-05-07T06:17:35.488Z,5.90
2019-05-07T06:20:25.507Z,6.00
2019-05-07T06:23:13.846Z,6.10
2019-05-07T06:25:44.223Z,6.20
2019-05-07T06:28:13.070Z,6.30
2019-05-07T06:30:42.001Z,6.40
2019-05-07T06:33:12.918Z,6.40
2019-05-07T06:35:42.888Z,6.30
2019-05-07T06:38:12.975Z,6.40
2019-05-07T06:40:59.617Z,6.40
2019-05-07T06:43:32.512Z,6.40
2019-05-07T06:46:02.930Z,6.50
2019-05-07T06:48:42.353Z,6.60
2019-05-07T06:51:03.092Z,6.70
2019-05-07T06:53:33.568Z,6.80
2019-05-07T06:56:03.627Z,6.90
2019-05-07T06:58:36.951Z,7.00
2019-05-07T07:01:25.394Z,6.90
2019-05-07T07:03:55.815Z,7.00
2019-05-07T07:06:27.426Z,7.00
2019-05-07T07:09:03.957Z,7.00
2019-05-07T07:11:34.342Z,7.00
2019-05-07T07:14:03.121Z,7.00
2019-05-07T07:16:32.564Z,7.10
2019-05-07T07:19:03.329Z,7.00
2019-05-07T07:21:32.665Z,7.10
2019-05-07T07:24:02.999Z,7.20
2019-05-07T07:26:33.762Z,7.30
2019-05-07T07:29:07.024Z,7.40
2019-05-07T07:31:37.394Z,7.40
2019-05-07T07:34:06.208Z,7.40
2019-05-07T07:36:36.624Z,7.50
2019-05-07T07:39:08.219Z,7.60
2019-05-07T07:41:38.584Z,7.60
2019-05-07T07:44:07.482Z,7.70
2019-05-07T07:46:36.265Z,7.70
2019-05-07T07:49:11.100Z,7.80
2019-05-07T07:51:41.452Z,7.80
2019-05-07T07:54:05.935Z,7.80
2019-05-07T07:56:55.740Z,7.90
2019-05-07T07:59:41.978Z,8.00
2019-05-07T08:02:12.455Z,8.20
2019-05-07T08:04:42.636Z,8.30
2019-05-07T08:07:12.455Z,8.30
2019-05-07T08:09:42.730Z,8.30
2019-05-07T08:12:12.717Z,8.20
2019-05-07T08:14:42.722Z,8.20
2019-05-07T08:17:13.039Z,8.10
2019-05-07T08:19:42.875Z,8.10
2019-05-07T08:22:12.261Z,8.30
2019-05-07T08:24:42.568Z,8.20
2019-05-07T08:27:14.772Z,8.40
2019-05-07T08:29:42.951Z,8.40
2019-05-07T08:32:13.671Z,8.40
2019-05-07T08:34:44.050Z,8.50
2019-05-07T08:37:12.915Z,8.60
2019-05-07T08:39:42.906Z,8.50
2019-05-07T08:42:12.373Z,8.60
2019-05-07T08:44:55.150Z,8.70
2019-05-07T08:47:31.913Z,8.70
2019-05-07T08:50:02.871Z,8.60
2019-05-07T08:52:32.728Z,8.60
2019-05-07T08:55:02.137Z,8.70
2019-05-07T08:57:31.861Z,8.70
2019-05-07T09:00:02.252Z,8.60
2019-05-07T09:02:32.632Z,8.60
2019-05-07T09:05:02.906Z,8.70
2019-05-07T09:07:32.314Z,8.90
2019-05-07T09:10:02.530Z,9.20
2019-05-07T09:12:32.652Z,9.30
2019-05-07T09:15:04.070Z,9.40
2019-05-07T09:17:32.940Z,9.00
2019-05-07T09:20:02.711Z,9.30
2019-05-07T09:22:32.366Z,9.30
2019-05-07T09:25:03.084Z,9.20
2019-05-07T09:27:33.379Z,9.10
2019-05-07T09:30:12.784Z,9.30
2019-05-07T09:32:49.365Z,9.50
2019-05-07T09:35:21.567Z,9.30
2019-05-07T09:37:50.305Z,9.20
2019-05-07T09:40:21.629Z,9.10
2019-05-07T09:42:52.395Z,9.20
2019-05-07T09:45:22.516Z,9.40
2019-05-07T09:47:52.259Z,9.50
2019-05-07T09:50:22.083Z,9.50
2019-05-07T09:52:51.802Z,9.40
2019-05-07T09:55:23.166Z,9.40
2019-05-07T09:57:52.777Z,9.60
2019-05-07T10:00:25.002Z,9.60
2019-05-07T10:02:56.614Z,9.60
2019-05-07T10:05:24.217Z,9.40
2019-05-07T10:07:55.311Z,9.40
2019-05-07T10:10:24.115Z,9.40
2019-05-07T10:12:57.258Z,9.40
2019-05-07T10:15:26.051Z,9.30
2019-05-07T10:18:01.716Z,9.20
2019-05-07T10:20:32.550Z,9.10
2019-05-07T10:23:02.421Z,9.50
2019-05-07T10:25:39.994Z,9.80
2019-05-07T10:28:09.207Z,10.00
2019-05-07T10:30:38.011Z,10.00
2019-05-07T10:33:06.808Z,9.90
2019-05-07T10:35:37.121Z,9.90
2019-05-07T10:38:06.018Z,9.80
2019-05-07T10:40:34.946Z,9.60
2019-05-07T10:43:03.752Z,9.60
2019-05-07T10:45:42.965Z,9.60
2019-05-07T10:48:13.372Z,9.80
2019-05-07T10:50:51.609Z,9.90
2019-05-07T10:53:19.924Z,9.90
2019-05-07T10:55:48.734Z,9.90
2019-05-07T10:58:17.535Z,9.90
2019-05-07T11:00:47.098Z,9.80
2019-05-07T11:03:15.826Z,9.70
2019-05-07T11:05:44.644Z,9.80
2019-05-07T11:08:13.482Z,9.60
2019-05-07T11:10:43.723Z,9.80
2019-05-07T11:13:13.013Z,9.90
2019-05-07T11:15:43.450Z,9.70
2019-05-07T11:18:17.133Z,9.30
2019-05-07T11:20:50.055Z,9.50
2019-05-07T11:23:16.372Z,9.40
2019-05-07T11:25:45.193Z,9.40
2019-05-07T11:28:14.048Z,9.20
2019-05-07T11:30:43.622Z,8.90
2019-05-07T11:33:12.967Z,8.70
2019-05-07T11:35:42.551Z,8.90
2019-05-07T11:38:21.081Z,8.90
2019-05-07T11:40:42.666Z,8.70
2019-05-07T11:43:16.466Z,8.80
2019-05-07T11:45:49.867Z,8.60
2019-05-07T11:48:21.992Z,8.60
2019-05-07T11:51:04.127Z,8.70
2019-05-07T11:53:33.307Z,8.50
2019-05-07T11:56:02.546Z,8.40
2019-05-07T11:58:32.736Z,8.20
2019-05-07T12:01:07.130Z,8.10
2019-05-07T12:03:35.959Z,8.00
2019-05-07T12:06:04.828Z,8.00
2019-05-07T12:08:42.956Z,8.00
2019-05-07T12:11:04.247Z,8.10
2019-05-07T12:13:33.114Z,8.30
2019-05-07T12:16:02.936Z,8.40
2019-05-07T12:18:32.228Z,8.30
2019-05-07T12:21:03.793Z,8.20
2019-05-07T12:23:33.199Z,8.20
2019-05-07T12:26:02.475Z,8.30
2019-05-07T12:28:32.804Z,8.30
2019-05-07T12:31:06.541Z,8.20
2019-05-07T12:33:36.923Z,8.40
2019-05-07T12:36:12.424Z,8.50
2019-05-07T12:38:41.694Z,8.70
2019-05-07T12:41:33.188Z,8.70
2019-05-07T12:44:22.213Z,8.70
2019-05-07T12:46:52.456Z,8.90
2019-05-07T12:49:22.105Z,8.80
2019-05-07T12:51:52.981Z,8.70
2019-05-07T12:54:29.624Z,8.60
2019-05-07T12:56:58.426Z,8.90
2019-05-07T12:59:28.177Z,9.10
2019-05-07T13:02:16.694Z,9.30
2019-05-07T13:04:36.365Z,9.30
2019-05-07T13:07:09.316Z,9.40
2019-05-07T13:09:38.174Z,9.40
2019-05-07T13:12:06.997Z,9.40
2019-05-07T13:14:35.817Z,9.40
2019-05-07T13:17:04.657Z,9.30
2019-05-07T13:19:33.476Z,9.30
2019-05-07T13:22:02.439Z,9.30
2019-05-07T13:24:32.088Z,9.40
2019-05-07T13:27:03.139Z,9.40
2019-05-07T13:29:32.596Z,9.40
2019-05-07T13:32:04.509Z,9.50
2019-05-07T13:34:34.100Z,9.70
2019-05-07T13:37:07.558Z,10.10
2019-05-07T13:39:38.385Z,10.10
2019-05-07T13:42:08.812Z,10.20
2019-05-07T13:44:39.206Z,10.10
2019-05-07T13:47:26.136Z,10.00
2019-05-07T13:49:55.980Z,10.10
2019-05-07T13:52:25.411Z,10.30
2019-05-07T13:54:54.919Z,10.30
2019-05-07T13:57:23.697Z,10.30
2019-05-07T13:59:53.416Z,10.30
2019-05-07T14:02:25.563Z,10.20
2019-05-07T14:04:54.395Z,10.30
2019-05-07T14:07:26.217Z,10.10
2019-05-07T14:09:57.282Z,10.00
2019-05-07T14:12:27.679Z,10.00
2019-05-07T14:14:56.588Z,10.10
2019-05-07T14:17:25.567Z,9.90
2019-05-07T14:19:54.396Z,10.20
2019-05-07T14:22:23.118Z,10.40
2019-05-07T14:24:53.070Z,10.50
2019-05-07T14:27:22.653Z,10.30
2019-05-07T14:29:52.091Z,10.50
2019-05-07T14:32:23.170Z,10.70
2019-05-07T14:34:59.317Z,11.10
2019-05-07T14:37:32.602Z,11.10
2019-05-07T14:40:02.716Z,11.70
2019-05-07T14:42:33.233Z,12.20
2019-05-07T14:45:02.021Z,12.70
2019-05-07T14:47:30.910Z,12.70
2019-05-07T14:50:01.911Z,12.50
2019-05-07T14:52:33.102Z,12.60
2019-05-07T14:55:00.536Z,12.60
2019-05-07T14:57:29.335Z,12.40
2019-05-07T14:59:58.219Z,12.60
2019-05-07T15:02:28.128Z,12.40
2019-05-07T15:04:57.107Z,12.70
2019-05-07T15:07:25.982Z,12.70
2019-05-07T15:09:54.818Z,12.40
2019-05-07T15:12:23.952Z,12.10
2019-05-07T15:14:52.910Z,12.00
2019-05-07T15:17:25.109Z,11.70
2019-05-07T15:19:53.943Z,11.50
2019-05-07T15:22:45.476Z,11.70
2019-05-07T15:25:02.767Z,11.20
2019-05-07T15:27:32.274Z,11.00
2019-05-07T15:30:02.335Z,10.50
2019-05-07T15:32:32.348Z,10.90
2019-05-07T15:35:02.190Z,10.80
2019-05-07T15:37:32.238Z,10.70
2019-05-07T15:40:02.496Z,11.00
2019-05-07T15:42:33.171Z,10.90
2019-05-07T15:45:02.404Z,10.70
2019-05-07T15:47:32.965Z,10.30
2019-05-07T15:50:01.817Z,9.90
2019-05-07T15:52:41.259Z,9.80
2019-05-07T15:55:11.907Z,10.00
2019-05-07T15:57:42.805Z,10.00
2019-05-07T16:00:23.523Z,9.90
2019-05-07T16:02:54.182Z,9.80
2019-05-07T16:05:22.939Z,9.60
2019-05-07T16:07:52.871Z,9.80
2019-05-07T16:10:23.459Z,10.00
2019-05-07T16:12:53.276Z,9.90
2019-05-07T16:15:22.512Z,9.90
2019-05-07T16:18:04.872Z,10.00
2019-05-07T16:20:33.721Z,9.80
2019-05-07T16:23:14.315Z,9.70
2019-05-07T16:25:33.477Z,9.90
2019-05-07T16:28:04.952Z,10.10
2019-05-07T16:30:32.756Z,10.00
2019-05-07T16:33:02.199Z,9.90
2019-05-07T16:35:32.901Z,9.90
2019-05-07T16:38:01.701Z,9.80
2019-05-07T16:40:32.296Z,9.70
2019-05-07T16:43:02.806Z,10.00
2019-05-07T16:45:31.701Z,10.30
2019-05-07T16:48:02.972Z,10.20
2019-05-07T16:50:32.661Z,10.20
2019-05-07T16:53:02.835Z,9.70
2019-05-07T16:55:36.741Z,9.50
2019-05-07T16:58:23.455Z,9.70
2019-05-07T17:00:54.073Z,9.70
2019-05-07T17:03:24.677Z,9.70
2019-05-07T17:05:53.681Z,9.50
2019-05-07T17:08:24.106Z,9.50
2019-05-07T17:10:52.937Z,9.60
2019-05-07T17:13:23.671Z,9.70
2019-05-07T17:15:56.614Z,9.80
2019-05-07T17:18:26.442Z,9.60
2019-05-07T17:20:56.467Z,10.00
2019-05-07T17:23:39.799Z,10.20
2019-05-07T17:26:01.659Z,9.70
2019-05-07T17:28:31.922Z,9.40
2019-05-07T17:31:02.927Z,9.30
2019-05-07T17:33:32.083Z,9.40
2019-05-07T17:36:02.497Z,9.40
2019-05-07T17:38:32.210Z,9.40
2019-05-07T17:41:13.660Z,9.60
2019-05-07T17:43:34.473Z,9.70
2019-05-07T17:46:03.329Z,9.40
2019-05-07T17:48:33.968Z,9.40
2019-05-07T17:51:07.501Z,9.60
2019-05-07T17:53:36.519Z,9.40
2019-05-07T17:56:06.392Z,9.40
2019-05-07T17:58:35.892Z,9.20
2019-05-07T18:01:08.077Z,9.00
2019-05-07T18:03:39.557Z,9.00
2019-05-07T18:06:12.353Z,8.90
2019-05-07T18:08:44.114Z,9.00
2019-05-07T18:11:21.367Z,9.20
2019-05-07T18:13:46.231Z,9.30
2019-05-07T18:16:33.305Z,9.30
2019-05-07T18:19:03.019Z,9.40
2019-05-07T18:21:32.655Z,9.30
2019-05-07T18:24:13.832Z,9.00
2019-05-07T18:26:42.167Z,8.80
2019-05-07T18:29:11.932Z,8.80
2019-05-07T18:31:45.813Z,8.80
2019-05-07T18:34:18.755Z,8.80
2019-05-07T18:36:47.825Z,9.10
2019-05-07T18:39:16.805Z,9.20
2019-05-07T18:41:46.367Z,9.10
2019-05-07T18:44:16.280Z,9.10
2019-05-07T18:46:49.905Z,9.00
2019-05-07T18:49:21.944Z,8.90
2019-05-07T18:52:04.567Z,8.90
2019-05-07T18:54:35.711Z,9.00
2019-05-07T18:57:05.262Z,9.00
2019-05-07T18:59:36.323Z,8.90
2019-05-07T19:02:06.175Z,8.90
2019-05-07T19:04:35.455Z,8.80
2019-05-07T19:07:06.361Z,8.80
2019-05-07T19:09:36.021Z,8.90
2019-05-07T19:12:06.896Z,8.80
2019-05-07T19:14:38.705Z,8.90
2019-05-07T19:17:08.521Z,8.90
2019-05-07T19:19:44.329Z,8.80
2019-05-07T19:22:08.751Z,8.70
2019-05-07T19:24:47.679Z,8.70
2019-05-07T19:27:16.930Z,8.60
2019-05-07T19:29:46.681Z,8.60
2019-05-07T19:32:19.781Z,8.60
2019-05-07T19:34:49.661Z,8.50
2019-05-07T19:37:19.326Z,8.50
2019-05-07T19:39:52.226Z,8.60
2019-05-07T19:42:22.700Z,8.60
2019-05-07T19:44:52.350Z,8.50
2019-05-07T19:47:23.293Z,8.50
2019-05-07T19:49:55.535Z,8.50
2019-05-07T19:52:29.150Z,8.40
2019-05-07T19:55:01.618Z,8.40
2019-05-07T19:57:33.226Z,8.40
2019-05-07T20:00:03.076Z,8.30
2019-05-07T20:02:37.807Z,8.40
2019-05-07T20:05:12.001Z,8.40
2019-05-07T20:07:43.415Z,8.30
2019-05-07T20:10:14.702Z,8.30
2019-05-07T20:12:44.736Z,8.30
2019-05-07T20:15:19.053Z,8.30
2019-05-07T20:17:52.445Z,8.30
2019-05-07T20:20:22.167Z,8.30
2019-05-07T20:22:57.385Z,8.40
2019-05-07T20:25:28.905Z,8.20
2019-05-07T20:27:58.069Z,8.20
2019-05-07T20:30:27.593Z,8.20
2019-05-07T20:32:57.437Z,8.30
2019-05-07T20:35:27.104Z,8.30
2019-05-07T20:37:56.800Z,8.30
2019-05-07T20:40:26.766Z,8.40
2019-05-07T20:43:01.887Z,8.30
2019-05-07T20:45:28.734Z,8.30
2019-05-07T20:47:58.580Z,8.40
2019-05-07T20:50:33.362Z,8.20
2019-05-07T20:53:03.278Z,8.10
2019-05-07T20:55:34.311Z,8.10
2019-05-07T20:58:08.499Z,8.00
2019-05-07T21:00:38.487Z,8.00
2019-05-07T21:03:19.909Z,7.90
2019-05-07T21:05:57.549Z,7.90
2019-05-07T21:08:27.321Z,7.80
2019-05-07T21:10:58.285Z,7.70
2019-05-07T21:13:31.783Z,7.70
2019-05-07T21:15:59.248Z,7.70
2019-05-07T21:18:29.147Z,7.70
2019-05-07T21:20:58.839Z,7.60
2019-05-07T21:23:28.276Z,7.60
2019-05-07T21:25:57.666Z,7.60
2019-05-07T21:28:27.239Z,7.50
2019-05-07T21:30:57.216Z,7.50
2019-05-07T21:33:32.036Z,7.50
2019-05-07T21:35:58.978Z,7.50
2019-05-07T21:38:29.522Z,7.50
2019-05-07T21:41:00.814Z,7.40
2019-05-07T21:43:32.700Z,7.50
2019-05-07T21:46:02.510Z,7.40
2019-05-07T21:48:32.866Z,7.40
2019-05-07T21:51:12.368Z,7.50
2019-05-07T21:53:39.845Z,7.40
2019-05-07T21:56:12.357Z,7.40
2019-05-07T21:58:53.864Z,7.50
2019-05-07T22:01:32.738Z,7.40
2019-05-07T22:04:02.860Z,7.40
2019-05-07T22:06:32.499Z,7.40
2019-05-07T22:09:03.393Z,7.40
2019-05-07T22:11:33.035Z,7.40
2019-05-07T22:14:02.360Z,7.40
2019-05-07T22:16:36.611Z,7.40
2019-05-07T22:19:06.770Z,7.40
2019-05-07T22:21:36.759Z,7.30
2019-05-07T22:24:10.397Z,7.40
2019-05-07T22:26:42.196Z,7.30
2019-05-07T22:29:14.435Z,7.20
2019-05-07T22:32:03.328Z,7.20
2019-05-07T22:34:43.243Z,7.20
2019-05-07T22:37:12.943Z,7.20
2019-05-07T22:39:42.437Z,7.20
2019-05-07T22:42:12.120Z,7.20
2019-05-07T22:44:46.962Z,7.10
2019-05-07T22:47:17.053Z,7.10
2019-05-07T22:49:47.785Z,7.00
2019-05-07T22:52:18.743Z,7.00
2019-05-07T22:54:48.247Z,7.10
2019-05-07T22:57:22.690Z,7.10
2019-05-07T22:59:53.694Z,7.20
2019-05-07T23:02:23.746Z,7.20
2019-05-07T23:04:53.390Z,7.20
2019-05-07T23:07:24.072Z,7.30
2019-05-07T23:09:53.701Z,7.40
2019-05-07T23:12:28.214Z,7.40
2019-05-07T23:14:57.782Z,7.40
2019-05-07T23:17:28.701Z,7.40
2019-05-07T23:19:58.260Z,7.40
2019-05-07T23:22:27.754Z,7.40
2019-05-07T23:24:58.298Z,7.40
2019-05-07T23:27:29.328Z,7.50
2019-05-07T23:30:02.486Z,7.50
2019-05-07T23:32:32.897Z,7.50
2019-05-07T23:35:02.847Z,7.50
2019-05-07T23:37:33.253Z,7.60
2019-05-07T23:40:07.612Z,7.60
2019-05-07T23:42:44.242Z,7.60
2019-05-07T23:45:13.761Z,7.60
2019-05-07T23:47:44.685Z,7.70
2019-05-07T23:50:14.540Z,7.60
2019-05-07T23:52:44.218Z,7.70
2019-05-07T23:55:14.165Z,7.60
2019-05-07T23:57:43.148Z,7.70
